Latest Coastal Weather Observations for Mornington Island Airport

IDQ60701

Issued at 9:45 pm EST Friday 22 August 2014 (issued every 10 minutes, with the page automatically refreshed every 10 minutes)

About coastal observations | Map of coastal stations | Coastal observations for QLD | Marine services | Other Formats
Station Details ID: 029182 Name: MORNINGTON ISLAND AIRPORT Lat: -16.66 Lon: 139.17 Height: 9.0 m
Data from the previous 72 hours. | See also: Recent months at Mornington Island Airport
Date/Time
EST
Temp

°C
Wind Pressure Rain
since 9am
mm
Weather Cloud Vis
km
Sea
Height
m
Swell
Dir
 
Speed
knots
Gust
knots
hPa Trend Height
m
Period
s
Dir
22/09:30pm 18.7 ENE 4 5 1015.5 - 0.0 - - - - - - -
22/09:00pm 19.3 ENE 4 4 1015.5 - 0.0 - - - - - - -
22/08:30pm 19.4 ENE 4 6 1015.4 - 0.0 - - - - - - -
22/08:00pm 20.0 NE 6 7 1015.2 - 0.0 - - - - - - -
22/07:30pm 20.9 ENE 5 5 1014.9 - 0.0 - - - - - - -
22/07:00pm 22.9 ENE 5 6 1014.6 - 0.0 - - - - - - -
22/06:30pm 24.7 E 7 8 1014.4 - 0.0 - - - - - - -
22/06:00pm 25.9 E 8 11 1014.4 - 0.0 - - - - - - -
22/05:30pm 27.0 ESE 8 11 1014.3 - 0.0 - - - - - - -
22/05:00pm 27.1 ESE 7 11 1014.3 - 0.0 - - - - - - -
22/04:30pm 27.1 SE 8 11 1014.1 - 0.0 - - - - - - -
22/04:00pm 26.9 SE 7 12 1014.1 - 0.0 - - - - - - -
22/03:30pm 26.8 SE 7 12 1014.1 - 0.0 - - - - - - -
22/03:00pm 25.9 SE 9 12 1014.5 - 0.0 - - - - - - -
22/02:30pm 25.7 SE 7 12 1014.8 - 0.0 - - - - - - -
22/02:00pm 25.5 SE 7 11 1015.3 - 0.0 - - - - - - -
22/01:30pm 24.7 SSE 8 13 1015.7 - 0.0 - - - - - - -
22/01:00pm 24.1 SSE 7 11 1016.1 - 0.0 - - - - - - -
22/12:30pm 23.2 SSE 9 13 1016.6 - 0.0 - - - - - - -
22/12:00pm 22.9 SE 9 14 1017.2 - 0.0 - - - - - - -
22/11:30am 22.6 SSE 9 14 1017.7 - 0.0 - - - - - - -
22/11:00am 22.2 SSE 9 14 1018.1 - 0.0 - - - - - - -
22/10:30am 22.2 SSE 10 15 1018.3 - 0.0 - - - - - - -
22/10:00am 21.9 SSE 9 15 1018.5 - 0.0 - - - - - - -
22/09:30am 20.9 SE 11 16 1018.4 - 0.0 - - - - - - -
22/09:00am 20.9 SSE 10 16 1018.2 - 0.0 - - - - - - -
22/08:30am 20.6 SSE 10 17 1017.9 - 0.0 - - - - - - -
22/08:00am 20.0 SSE 8 12 1017.7 - 0.0 - - - - - - -
22/07:30am 17.6 SSE 6 8 1017.4 - 0.0 - - - - - - -
22/07:00am 14.8 SSE 5 6 1017.0 - 0.0 - - - - - - -
22/06:30am 15.0 S 5 7 1016.4 - 0.0 - - - - - - -
22/06:00am 15.5 S 4 6 1015.9 - 0.0 - - - - - - -
22/05:30am 16.5 S 4 6 1015.5 - 0.0 - - - - - - -
22/05:00am 17.6 SW 3 5 1015.1 - 0.0 - - - - - - -
22/04:30am 18.7 WSW 5 7 1015.0 - 0.0 - - - - - - -
22/04:00am 18.8 WSW 7 10 1015.1 - 0.0 - - - - - - -
22/03:30am 18.8 WSW 7 11 1015.3 - 0.0 - - - - - - -
22/03:00am 19.1 WSW 7 11 1015.5 - 0.0 - - - - - - -
22/02:30am 18.9 WSW 6 9 1015.6 - 0.0 - - - - - - -
22/02:00am 19.3 WSW 6 10 1015.8 - 0.0 - - - - - - -
22/01:30am 18.9 WSW 4 7 1015.9 - 0.0 - - - - - - -
22/01:00am 18.7 WSW 4 7 1016.0 - 0.0 - - - - - - -
22/12:30am 18.9 WSW 6 8 1016.3 - 0.0 - - - - - - -
22/12:00am 18.6 WSW 4 6 1016.3 - 0.0 - - - - - - -
 
Date/Time
EST
Temp

°C
Wind Pressure Rain
since 9am
mm
Weather Cloud Vis
km
Sea
Height
m
Swell
Dir
 
Speed
knots
Gust
knots
hPa Trend Height
m
Period
s
Dir
21/11:30pm 18.0 WSW 5 6 1016.2 - 0.0 - - - - - - -
21/11:00pm 17.5 SW 4 5 1016.3 - 0.0 - - - - - - -
21/10:30pm 17.6 SW 4 6 1016.1 - 0.0 - - - - - - -
21/10:00pm 18.0 WSW 4 6 1016.1 - 0.0 - - - - - - -
21/09:30pm 18.2 WSW 4 5 1016.2 - 0.0 - - - - - - -
21/09:00pm 18.5 W 4 6 1016.1 - 0.0 - - - - - - -
21/08:30pm 17.9 W 4 5 1015.9 - 0.0 - - - - - - -
21/08:00pm 19.6 W 4 7 1015.8 - 0.0 - - - - - - -
21/07:30pm 18.5 N 4 5 1015.3 - 0.0 - - - - - - -
21/07:00pm 20.4 E 2 5 1014.8 - 0.0 - - - - - - -
21/06:30pm 22.9 E 6 7 1014.5 - 0.0 - - - - - - -
21/06:00pm 24.9 E 8 11 1014.1 - 0.0 - - - - - - -
21/05:30pm 25.8 ESE 8 10 1014.0 - 0.0 - - - - - - -
21/05:00pm 26.0 ESE 7 11 1013.8 - 0.0 - - - - - - -
21/04:30pm 26.2 ESE 7 10 1013.8 - 0.0 - - - - - - -
21/04:00pm 26.1 ESE 7 12 1013.8 - 0.0 - - - - - - -
21/03:30pm 26.0 ESE 8 12 1013.9 - 0.0 - - - - - - -
21/03:00pm 26.2 ESE 9 14 1014.1 - 0.0 - - - - - - -
21/02:30pm 25.3 ESE 10 16 1014.6 - 0.0 - - - - - - -
21/02:00pm 24.3 SE 9 14 1015.1 - 0.0 - - - - - - -
21/01:30pm 24.5 SSE 8 12 1015.6 - 0.0 - - - - - - -
21/01:00pm 23.2 SSE 9 13 1016.0 - 0.0 - - - - - - -
21/12:30pm 22.6 SSE 8 14 1016.4 - 0.0 - - - - - - -
21/12:00pm 22.3 SE 9 16 1016.8 - 0.0 - - - - - - -
21/11:30am 21.7 SSE 10 17 1017.4 - 0.0 - - - - - - -
21/11:00am 21.4 SE 10 16 1017.8 - 0.0 - - - - - - -
21/10:30am 21.8 SE 11 18 1018.2 - 0.0 - - - - - - -
21/10:00am 21.0 SSE 11 19 1018.3 - 0.0 - - - - - - -
21/09:30am 20.9 SE 10 18 1018.3 - 0.0 - - - - - - -
21/09:00am 20.5 SE 10 17 1018.0 - 0.0 - - - - - - -
21/08:30am 19.8 SSE 9 14 1017.7 - 0.0 - - - - - - -
21/08:00am 18.9 SSE 9 16 1017.4 - 0.0 - - - - - - -
21/07:30am 17.9 SSE 7 12 1017.0 - 0.0 - - - - - - -
21/07:00am 17.3 SSE 7 13 1016.8 - 0.0 - - - - - - -
21/06:30am 17.8 SSE 7 12 1016.5 - 0.0 - - - - - - -
21/06:00am 17.9 SSE 8 13 1016.1 - 0.0 - - - - - - -
21/05:30am 18.1 S 9 15 1015.5 - 0.0 - - - - - - -
21/05:00am 18.0 S 8 12 1015.4 - 0.0 - - - - - - -
21/04:30am 18.3 S 8 13 1015.3 - 0.0 - - - - - - -
21/04:00am 18.0 S 8 12 1015.3 - 0.0 - - - - - - -
21/03:30am 17.8 S 7 12 1015.4 - 0.0 - - - - - - -
21/03:00am 17.3 SSW 5 8 1015.5 - 0.0 - - - - - - -
21/02:30am 17.1 SSW 4 6 1015.7 - 0.0 - - - - - - -
21/02:00am 15.6 S 3 5 1015.6 - 0.0 - - - - - - -
21/01:30am 16.4 SW 3 4 1015.8 - 0.0 - - - - - - -
21/01:00am 16.2 SW 3 4 1016.0 - 0.0 - - - - - - -
21/12:30am 13.4 SW 3 4 1016.1 - 0.0 - - - - - - -
21/12:00am 14.3 WSW 4 5 1016.1 - 0.0 - - - - - - -
 
Date/Time
EST
Temp

°C
Wind Pressure Rain
since 9am
mm
Weather Cloud Vis
km
Sea
Height
m
Swell
Dir
 
Speed
knots
Gust
knots
hPa Trend Height
m
Period
s
Dir
20/11:30pm 14.8 W 4 5 1016.2 - 0.0 - - - - - - -
20/11:00pm 14.4 CALM 0 0 1016.2 - 0.0 - - - - - - -
20/10:30pm 15.1 CALM 0 0 1016.0 - 0.0 - - - - - - -
20/10:00pm 15.8 CALM 0 0 1016.0 - 0.0 - - - - - - -
20/09:30pm 16.6 E 3 4 1015.9 - 0.0 - - - - - - -
20/09:00pm 17.3 ESE 4 5 1015.7 - 0.0 - - - - - - -
20/08:30pm 18.2 E 5 6 1015.5 - 0.0 - - - - - - -
20/08:00pm 18.4 ESE 5 6 1015.3 - 0.0 - - - - - - -
20/07:30pm 19.6 E 5 5 1014.9 - 0.0 - - - - - - -
20/07:00pm 21.0 E 5 6 1014.6 - 0.0 - - - - - - -
20/06:30pm 23.0 ESE 7 9 1014.3 - 0.0 - - - - - - -
20/06:00pm 24.1 ESE 7 10 1014.2 - 0.0 - - - - - - -
20/05:30pm 25.0 ESE 8 10 1013.9 - 0.0 - - - - - - -
20/05:00pm 25.3 SE 8 11 1013.8 - 0.0 - - - - - - -
20/04:30pm 25.7 SE 9 13 1014.0 - 0.0 - - - - - - -
20/04:00pm 25.7 SE 9 13 1014.0 - 0.0 - - - - - - -
20/03:30pm 25.9 SE 10 15 1014.1 - 0.0 - - - - - - -
20/03:00pm 26.1 SE 8 13 1014.5 - 0.0 - - - - - - -
20/02:30pm 24.7 SE 9 15 1015.0 - 0.0 - - - - - - -
20/02:00pm 25.2 SSE 8 15 1015.6 - 0.0 - - - - - - -
20/01:30pm 24.1 SE 10 14 1016.0 - 0.0 - - - - - - -
20/01:00pm 23.9 SSE 10 16 1016.5 - 0.0 - - - - - - -
20/12:30pm 23.0 SSE 11 18 1016.8 - 0.0 - - - - - - -
20/12:00pm 21.9 SSE 12 22 1017.2 - 0.0 - - - - - - -
20/11:30am 21.3 SSE 12 19 1017.8 - 0.0 - - - - - - -
20/11:00am 20.8 SSE 12 20 1017.9 - 0.0 - - - - - - -
20/10:30am 20.5 SSE 10 17 1018.0 - 0.0 - - - - - - -
20/10:00am 20.2 SSE 11 18 1017.9 - 0.0 - - - - - - -
20/09:30am 19.9 SSE 11 21 1017.7 - 0.0 - - - - - - -
20/09:00am 20.1 SE 9 14 1017.5 - 0.0 - - - - - - -
20/08:30am 19.5 SSE 10 18 1017.7 - 0.0 - - - - - - -
20/08:00am 20.4 SSE 9 13 1017.3 - 0.0 - - - - - - -
20/07:30am 19.7 SE 9 14 1016.9 - 0.0 - - - - - - -
20/07:00am 19.3 SE 9 13 1016.8 - 0.0 - - - - - - -
20/06:30am 19.6 SE 10 14 1016.5 - 0.0 - - - - - - -
20/06:00am 19.5 SE 9 15 1016.1 - 0.0 - - - - - - -
20/05:30am 19.3 SE 9 13 1015.7 - 0.0 - - - - - - -
20/05:00am 19.4 SE 8 13 1015.4 - 0.0 - - - - - - -
20/04:30am 19.1 SSE 7 11 1015.4 - 0.0 - - - - - - -
20/04:00am 18.8 SSE 6 9 1015.2 - 0.0 - - - - - - -
20/03:30am 18.1 SSE 6 9 1015.1 - 0.0 - - - - - - -
20/03:00am 17.7 SSE 6 9 1015.2 - 0.0 - - - - - - -
20/02:30am 17.2 S 5 8 1015.5 - 0.0 - - - - - - -
20/02:00am 13.5 SSE 4 5 1015.7 - 0.0 - - - - - - -
20/01:30am 12.7 SE 5 7 1016.0 - 0.0 - - - - - - -
20/01:00am 12.9 ESE 3 4 1016.3 - 0.0 - - - - - - -
20/12:30am 13.6 ESE 3 4 1016.3 - 0.0 - - - - - - -
20/12:00am 14.6 SSE 5 8 1016.3 - 0.0 - - - - - - -
 
Date/Time
EST
Temp

°C
Wind Pressure Rain
since 9am
mm
Weather Cloud Vis
km
Sea
Height
m
Swell
Dir
 
Speed
knots
Gust
knots
hPa Trend Height
m
Period
s
Dir
19/11:30pm 15.0 ESE 5 6 1016.3 - 0.0 - - - - - - -
19/11:00pm 16.7 S 3 5 1016.2 - 0.0 - - - - - - -
19/10:30pm 15.4 S 3 4 1016.0 - 0.0 - - - - - - -
19/10:00pm 15.6 S 3 4 1016.1 - 0.0 - - - - - - -

Other Formats:

Comma delimited format used in spreadsheet applications
http://www.bom.gov.au/fwo/IDQ60701/IDQ60701.94254.axf

JavaScript Object Notation format (JSON) in row-major order
http://www.bom.gov.au/fwo/IDQ60701/IDQ60701.94254.json